createdAt,value
2023-04-27T00:00:18.473Z,49.15
2023-04-27T00:01:50.595Z,49.42
2023-04-27T00:03:23.208Z,49.43
2023-04-27T00:04:55.733Z,49.28
2023-04-27T00:06:28.157Z,49.09
2023-04-27T00:08:00.249Z,49.28
2023-04-27T00:09:32.433Z,49.11
2023-04-27T00:11:04.823Z,49.05
2023-04-27T00:12:37.009Z,48.90
2023-04-27T00:14:09.154Z,49.19
2023-04-27T00:15:44.335Z,49.71
2023-04-27T00:17:16.441Z,49.65
2023-04-27T00:18:48.548Z,49.45
2023-04-27T00:20:21.262Z,49.58
2023-04-27T00:21:53.420Z,49.50
2023-04-27T00:23:26.873Z,50.00
2023-04-27T00:24:58.752Z,49.88
2023-04-27T00:26:30.880Z,50.14
2023-04-27T00:28:03.079Z,50.14
2023-04-27T00:29:35.287Z,50.73
2023-04-27T00:31:07.490Z,50.49
2023-04-27T00:32:39.557Z,50.59
2023-04-27T00:34:11.791Z,51.16
2023-04-27T00:35:43.757Z,51.16
2023-04-27T00:37:15.783Z,50.90
2023-04-27T00:38:47.885Z,51.16
2023-04-27T00:40:21.767Z,51.17
2023-04-27T00:41:53.981Z,51.29
2023-04-27T00:43:26.198Z,51.54
2023-04-27T00:44:59.222Z,51.41
2023-04-27T00:46:31.743Z,51.79
2023-04-27T00:48:04.014Z,51.62
2023-04-27T00:49:36.263Z,51.59
2023-04-27T00:51:08.484Z,51.49
2023-04-27T00:52:40.817Z,51.74
2023-04-27T00:54:14.115Z,51.62
2023-04-27T00:55:46.150Z,51.75
2023-04-27T00:57:18.795Z,51.66
2023-04-27T00:58:51.108Z,51.62
2023-04-27T01:00:23.203Z,51.51
2023-04-27T01:01:55.486Z,51.66
2023-04-27T01:03:28.065Z,51.75
2023-04-27T01:05:00.680Z,51.78
2023-04-27T01:06:32.799Z,51.81
2023-04-27T01:08:06.095Z,51.61
2023-04-27T01:09:38.151Z,51.85
2023-04-27T01:11:10.286Z,51.91
2023-04-27T01:12:42.364Z,51.91
2023-04-27T01:14:14.659Z,52.15
2023-04-27T01:15:46.777Z,51.95
2023-04-27T01:17:18.904Z,51.89
2023-04-27T01:18:50.988Z,52.15
2023-04-27T01:20:23.177Z,51.86
2023-04-27T01:21:55.412Z,51.56
2023-04-27T01:23:27.650Z,51.66
2023-04-27T01:24:59.749Z,51.38
2023-04-27T01:26:32.084Z,51.27
2023-04-27T01:28:04.299Z,51.44
2023-04-27T01:29:36.468Z,51.58
2023-04-27T01:31:15.432Z,51.69
2023-04-27T01:32:47.553Z,51.60
2023-04-27T01:34:19.763Z,51.44
2023-04-27T01:35:52.046Z,51.94
2023-04-27T01:37:24.234Z,51.80
2023-04-27T01:38:56.377Z,51.89
2023-04-27T01:40:28.591Z,51.40
2023-04-27T01:42:00.798Z,51.45
2023-04-27T01:43:33.126Z,51.54
2023-04-27T01:47:29.314Z,51.34
2023-04-27T01:49:01.916Z,51.50
2023-04-27T01:50:33.995Z,51.58
2023-04-27T01:52:06.047Z,51.76
2023-04-27T01:53:38.368Z,51.44
2023-04-27T01:55:10.669Z,51.97
2023-04-27T01:56:42.773Z,51.86
2023-04-27T01:58:14.872Z,52.08
2023-04-27T01:59:47.005Z,51.78
2023-04-27T02:01:19.147Z,51.47
2023-04-27T02:02:53.985Z,51.31
2023-04-27T02:04:26.492Z,51.54
2023-04-27T02:05:58.690Z,51.21
2023-04-27T02:07:30.957Z,51.24
2023-04-27T02:09:03.179Z,51.57
2023-04-27T02:10:36.073Z,51.61
2023-04-27T02:12:08.204Z,51.57
2023-04-27T02:13:40.281Z,51.38
2023-04-27T02:15:12.430Z,51.25
2023-04-27T02:16:44.573Z,51.27
2023-04-27T02:18:16.868Z,51.46
2023-04-27T02:19:48.965Z,51.74
2023-04-27T02:21:21.517Z,51.20
2023-04-27T02:22:53.886Z,51.15
2023-04-27T02:24:26.048Z,51.23
2023-04-27T02:25:58.108Z,51.26
2023-04-27T02:27:30.252Z,51.29
2023-04-27T02:29:04.227Z,51.29
2023-04-27T02:30:37.638Z,51.18
2023-04-27T02:32:09.690Z,50.89
2023-04-27T02:33:42.501Z,50.73
2023-04-27T02:35:14.756Z,50.74
2023-04-27T02:38:18.687Z,50.70
2023-04-27T02:39:51.013Z,51.24
2023-04-27T02:41:23.196Z,51.08
2023-04-27T02:42:55.387Z,51.03
2023-04-27T02:44:27.510Z,51.58
2023-04-27T02:46:03.840Z,51.38
2023-04-27T02:47:36.223Z,52.00
2023-04-27T02:49:08.383Z,51.78
2023-04-27T02:50:45.155Z,51.92
2023-04-27T02:52:17.292Z,51.33
2023-04-27T02:53:49.527Z,51.41
2023-04-27T02:55:21.871Z,51.43
2023-04-27T02:56:53.955Z,51.16
2023-04-27T02:58:26.468Z,51.09
2023-04-27T02:59:58.766Z,51.16
2023-04-27T03:01:30.993Z,51.34
2023-04-27T03:03:03.437Z,51.57
2023-04-27T03:04:37.065Z,51.56
2023-04-27T03:06:09.189Z,52.26
2023-04-27T03:07:41.696Z,52.08
2023-04-27T03:09:14.398Z,53.10
2023-04-27T03:10:46.705Z,52.27
2023-04-27T03:12:18.907Z,52.18
2023-04-27T03:13:51.025Z,52.04
2023-04-27T03:15:23.142Z,52.25
2023-04-27T03:16:56.624Z,52.46
2023-04-27T03:18:28.587Z,51.96
2023-04-27T03:20:01.094Z,52.33
2023-04-27T03:21:33.626Z,52.14
2023-04-27T03:23:05.837Z,52.50
2023-04-27T03:24:38.231Z,52.33
2023-04-27T03:26:14.382Z,52.60
2023-04-27T03:27:46.452Z,52.72
2023-04-27T03:29:19.268Z,52.78
2023-04-27T03:30:51.644Z,53.08
2023-04-27T03:32:23.790Z,52.31
2023-04-27T03:33:56.063Z,52.56
2023-04-27T03:35:28.156Z,52.31
2023-04-27T03:37:01.835Z,52.66
2023-04-27T03:38:34.299Z,52.55
2023-04-27T03:40:08.079Z,52.52
2023-04-27T03:41:40.167Z,52.57
2023-04-27T03:43:12.219Z,52.49
2023-04-27T03:44:44.323Z,52.85
2023-04-27T03:46:16.727Z,52.69
2023-04-27T03:47:49.165Z,52.33
2023-04-27T03:49:21.495Z,52.59
2023-04-27T03:50:53.624Z,52.51
2023-04-27T03:52:25.904Z,52.41
2023-04-27T03:53:58.090Z,52.35
2023-04-27T03:55:30.235Z,52.09
2023-04-27T03:57:03.069Z,52.24
2023-04-27T03:58:35.192Z,52.07
2023-04-27T04:00:12.005Z,51.77
2023-04-27T04:01:44.157Z,52.18
2023-04-27T04:03:17.075Z,51.65
2023-04-27T04:04:49.516Z,51.65
2023-04-27T04:06:21.810Z,51.80
2023-04-27T04:07:54.094Z,51.68
2023-04-27T04:09:26.317Z,51.22
2023-04-27T04:10:58.450Z,51.61
2023-04-27T04:12:30.834Z,51.33
2023-04-27T04:14:03.053Z,51.90
2023-04-27T04:15:35.273Z,51.97
2023-04-27T04:17:11.307Z,52.50
2023-04-27T04:18:43.457Z,51.70
2023-04-27T04:20:15.756Z,51.32
2023-04-27T04:21:48.044Z,51.03
2023-04-27T04:23:20.189Z,51.10
2023-04-27T04:24:54.766Z,50.83
2023-04-27T04:26:30.383Z,50.12
2023-04-27T04:28:02.585Z,50.58
2023-04-27T04:29:34.637Z,50.64
2023-04-27T04:31:08.647Z,50.60
2023-04-27T04:32:40.867Z,49.43
2023-04-27T04:34:13.384Z,50.06
2023-04-27T04:35:45.538Z,50.36
2023-04-27T04:37:18.981Z,50.46
2023-04-27T04:38:50.941Z,49.71
2023-04-27T04:40:23.089Z,49.89
2023-04-27T04:41:55.240Z,49.78
2023-04-27T04:43:27.619Z,49.56
2023-04-27T04:44:59.824Z,49.96
2023-04-27T04:46:32.045Z,50.02
2023-04-27T04:48:04.636Z,50.26
2023-04-27T04:49:37.289Z,50.22
2023-04-27T04:51:09.448Z,49.80
2023-04-27T04:52:41.744Z,49.56
2023-04-27T04:54:14.239Z,50.25
2023-04-27T04:55:46.342Z,49.62
2023-04-27T04:57:18.526Z,49.25
2023-04-27T04:58:50.660Z,49.03
2023-04-27T05:00:22.830Z,48.52
2023-04-27T05:01:56.350Z,48.64
2023-04-27T05:03:28.874Z,48.92
2023-04-27T05:05:01.278Z,49.30
2023-04-27T05:06:33.678Z,48.99
2023-04-27T05:08:05.923Z,49.46
2023-04-27T05:09:38.152Z,49.64
2023-04-27T05:11:10.421Z,49.53
2023-04-27T05:12:44.832Z,50.35
2023-04-27T05:14:17.028Z,49.75
2023-04-27T05:15:49.187Z,49.53
2023-04-27T05:17:21.469Z,49.71
2023-04-27T05:18:56.373Z,50.02
2023-04-27T05:20:28.501Z,50.04
2023-04-27T05:22:00.733Z,50.57
2023-04-27T05:23:32.868Z,50.47
2023-04-27T05:25:05.349Z,50.40
2023-04-27T05:26:37.486Z,50.25
2023-04-27T05:28:10.384Z,51.00
2023-04-27T05:29:42.590Z,51.21
2023-04-27T05:31:14.746Z,50.37
2023-04-27T05:32:46.874Z,49.50
2023-04-27T05:34:19.224Z,49.02
2023-04-27T05:35:51.386Z,49.10
2023-04-27T05:37:26.676Z,48.26
2023-04-27T05:38:58.948Z,48.39
2023-04-27T05:40:31.172Z,48.42
2023-04-27T05:42:03.470Z,48.87
2023-04-27T05:43:35.950Z,49.43
2023-04-27T05:45:08.620Z,49.58
2023-04-27T05:46:40.958Z,49.15
2023-04-27T05:48:14.589Z,48.74
2023-04-27T05:49:51.928Z,48.80
2023-04-27T05:51:24.078Z,49.10
2023-04-27T05:52:56.270Z,49.35
2023-04-27T05:54:28.379Z,48.92
2023-04-27T05:56:01.697Z,49.15
2023-04-27T05:57:33.952Z,49.68
2023-04-27T05:59:06.141Z,49.78
2023-04-27T06:00:38.789Z,50.81
2023-04-27T06:02:11.013Z,50.20
2023-04-27T06:03:43.471Z,50.18
2023-04-27T06:05:15.838Z,49.14
2023-04-27T06:06:47.974Z,48.46
2023-04-27T06:08:20.072Z,48.18
2023-04-27T06:09:52.202Z,48.69
2023-04-27T06:11:24.260Z,48.15
2023-04-27T06:12:56.355Z,48.47
2023-04-27T06:14:29.243Z,49.02
2023-04-27T06:16:02.014Z,49.40
2023-04-27T06:17:38.281Z,50.43
2023-04-27T06:19:10.537Z,50.21
2023-04-27T06:20:43.386Z,48.53
2023-04-27T06:22:15.465Z,49.79
2023-04-27T06:23:47.581Z,48.19
2023-04-27T06:25:19.992Z,48.37
2023-04-27T06:26:52.366Z,49.00
2023-04-27T06:28:24.525Z,49.85
2023-04-27T06:29:56.622Z,48.97
2023-04-27T06:31:28.743Z,49.02
2023-04-27T06:33:01.139Z,48.35
2023-04-27T06:34:34.613Z,48.70
2023-04-27T06:36:07.117Z,48.93
2023-04-27T06:37:39.648Z,48.85
2023-04-27T06:39:12.003Z,49.15
2023-04-27T06:40:45.306Z,48.15
2023-04-27T06:42:17.665Z,48.44
2023-04-27T06:43:49.868Z,49.04
2023-04-27T06:45:22.270Z,48.46
2023-04-27T06:46:54.447Z,47.41
2023-04-27T06:48:26.590Z,47.33
2023-04-27T06:49:58.800Z,47.65
2023-04-27T06:51:30.920Z,47.33
2023-04-27T06:53:03.168Z,47.55
2023-04-27T06:54:35.468Z,48.04
2023-04-27T06:56:12.082Z,48.28
2023-04-27T06:57:47.073Z,48.19
2023-04-27T06:59:19.196Z,48.60
2023-04-27T07:00:52.116Z,49.08
2023-04-27T07:02:25.687Z,48.30
2023-04-27T07:03:58.088Z,47.89
2023-04-27T07:05:30.326Z,47.23
2023-04-27T07:07:02.497Z,47.61
2023-04-27T07:08:34.593Z,47.59
2023-04-27T07:10:07.663Z,48.36
2023-04-27T07:11:39.772Z,47.99
2023-04-27T07:13:12.630Z,49.67
2023-04-27T07:14:46.213Z,48.36
2023-04-27T07:16:19.621Z,48.32
2023-04-27T07:17:52.178Z,48.85
2023-04-27T07:19:24.420Z,47.57
2023-04-27T07:20:58.361Z,48.11
2023-04-27T07:22:30.542Z,47.83
2023-04-27T07:24:02.856Z,47.52
2023-04-27T07:25:35.950Z,47.50
2023-04-27T07:27:08.580Z,47.42
2023-04-27T07:28:40.772Z,47.82
2023-04-27T07:30:14.631Z,47.68
2023-04-27T07:31:46.931Z,47.10
2023-04-27T07:33:19.239Z,47.79
2023-04-27T07:34:54.446Z,47.13
2023-04-27T07:36:28.043Z,47.76
2023-04-27T07:38:02.077Z,47.62
2023-04-27T07:39:34.529Z,48.34
2023-04-27T07:41:07.631Z,47.96
2023-04-27T07:42:42.238Z,48.17
2023-04-27T07:44:14.326Z,50.02
2023-04-27T07:45:46.494Z,50.33
2023-04-27T07:47:19.405Z,50.84
2023-04-27T07:48:52.750Z,49.51
2023-04-27T07:50:26.192Z,48.53
2023-04-27T07:51:59.021Z,48.41
2023-04-27T07:53:31.617Z,50.14
2023-04-27T07:55:04.968Z,48.96
2023-04-27T07:56:37.072Z,49.45
2023-04-27T07:58:09.393Z,49.29
2023-04-27T07:59:42.262Z,50.22
2023-04-27T08:01:14.416Z,49.10
2023-04-27T08:02:46.794Z,49.28
2023-04-27T08:04:19.371Z,47.73
2023-04-27T08:05:51.848Z,47.08
2023-04-27T08:07:24.323Z,46.92
2023-04-27T08:08:58.929Z,47.47
2023-04-27T08:10:31.175Z,47.29
2023-04-27T08:12:03.368Z,47.48
2023-04-27T08:13:35.596Z,47.12
2023-04-27T08:15:08.680Z,46.57
2023-04-27T08:16:44.347Z,46.99
2023-04-27T08:18:18.288Z,47.13
2023-04-27T08:19:50.429Z,47.62
2023-04-27T08:21:22.561Z,47.56
2023-04-27T08:22:55.145Z,47.96
2023-04-27T08:24:27.324Z,47.63
2023-04-27T08:25:59.651Z,47.80
2023-04-27T08:27:31.947Z,47.91
2023-04-27T08:29:15.332Z,48.68
2023-04-27T08:30:56.240Z,48.58
2023-04-27T08:32:28.866Z,48.67
2023-04-27T08:34:01.041Z,49.61
2023-04-27T08:35:33.263Z,50.05
2023-04-27T08:37:05.495Z,49.26
2023-04-27T08:38:37.595Z,48.95
2023-04-27T08:40:11.347Z,49.76
2023-04-27T08:41:44.360Z,47.89
2023-04-27T08:43:16.752Z,48.40
2023-04-27T08:44:49.017Z,47.94
2023-04-27T08:46:22.252Z,49.49
2023-04-27T08:47:54.598Z,48.76
2023-04-27T08:49:27.169Z,49.86
2023-04-27T08:51:00.276Z,47.79
2023-04-27T08:52:32.753Z,47.79
2023-04-27T08:54:05.021Z,47.96
2023-04-27T08:55:37.200Z,47.50
2023-04-27T08:57:13.765Z,47.58
2023-04-27T08:58:46.022Z,49.16
2023-04-27T09:00:19.608Z,48.70
2023-04-27T09:01:51.811Z,48.08
2023-04-27T09:03:27.626Z,49.11
2023-04-27T09:05:00.109Z,48.95
2023-04-27T09:06:34.322Z,48.38
2023-04-27T09:08:08.797Z,48.29
2023-04-27T09:09:40.907Z,49.94
2023-04-27T09:11:17.305Z,48.57
2023-04-27T09:12:58.937Z,50.29
2023-04-27T09:14:35.715Z,47.82
2023-04-27T09:16:07.933Z,50.58
2023-04-27T09:17:40.147Z,49.01
2023-04-27T09:19:12.572Z,48.42
2023-04-27T09:20:49.260Z,48.43
2023-04-27T09:22:21.519Z,47.61
2023-04-27T09:23:54.214Z,48.19
2023-04-27T09:25:33.864Z,46.74
2023-04-27T09:27:07.822Z,46.83
2023-04-27T09:28:40.875Z,47.82
2023-04-27T09:30:14.737Z,48.59
2023-04-27T09:31:46.845Z,48.74
2023-04-27T09:33:32.865Z,48.14
2023-04-27T09:35:08.175Z,48.99
2023-04-27T09:36:41.045Z,47.32
2023-04-27T09:38:15.325Z,46.09
2023-04-27T09:39:48.630Z,46.15
2023-04-27T09:41:22.151Z,46.70
2023-04-27T09:43:04.152Z,47.22
2023-04-27T09:44:36.815Z,46.62
2023-04-27T09:46:09.170Z,47.25
2023-04-27T09:47:41.717Z,48.33
2023-04-27T09:49:14.636Z,49.76
2023-04-27T09:50:47.677Z,48.83
2023-04-27T09:53:57.791Z,47.98
2023-04-27T09:55:34.961Z,47.45
2023-04-27T09:57:56.471Z,47.42
2023-04-27T09:59:55.399Z,46.18
2023-04-27T10:01:48.811Z,47.32
2023-04-27T10:03:43.573Z,47.64
2023-04-27T10:05:51.959Z,47.52
2023-04-27T10:07:27.450Z,48.53
2023-04-27T10:08:59.795Z,47.16
2023-04-27T10:10:43.030Z,45.75
2023-04-27T10:12:29.156Z,45.70
2023-04-27T10:14:11.453Z,45.62
2023-04-27T10:15:43.679Z,46.39
2023-04-27T10:17:16.596Z,48.00
2023-04-27T10:18:57.494Z,46.79
2023-04-27T10:20:34.300Z,46.46
2023-04-27T10:22:08.383Z,47.62
2023-04-27T10:23:48.815Z,46.20
2023-04-27T10:25:24.350Z,45.48
2023-04-27T10:27:02.083Z,45.98
2023-04-27T10:28:40.467Z,46.63
2023-04-27T10:30:17.861Z,46.50
2023-04-27T10:31:50.381Z,45.89
2023-04-27T10:33:23.612Z,44.83
2023-04-27T10:35:09.833Z,44.96
2023-04-27T10:36:42.709Z,45.52
2023-04-27T10:38:24.048Z,45.24
2023-04-27T10:40:08.353Z,45.74
2023-04-27T10:41:57.079Z,45.96
2023-04-27T10:43:31.130Z,45.05
2023-04-27T10:45:03.436Z,44.76
2023-04-27T10:46:36.752Z,44.19
2023-04-27T10:48:08.959Z,44.03
2023-04-27T10:49:41.494Z,44.20
2023-04-27T10:51:18.125Z,45.27
2023-04-27T10:52:50.668Z,44.50
2023-04-27T10:54:27.575Z,44.55
2023-04-27T10:55:59.662Z,44.11
2023-04-27T10:57:31.916Z,44.05
2023-04-27T10:59:05.653Z,45.04
2023-04-27T11:00:44.354Z,44.42
2023-04-27T11:02:17.191Z,44.29
2023-04-27T11:03:56.182Z,44.29
2023-04-27T11:05:33.765Z,44.33
2023-04-27T11:07:09.663Z,46.47
2023-04-27T11:08:45.916Z,43.96
2023-04-27T11:10:19.459Z,44.95
2023-04-27T11:11:51.631Z,45.44
2023-04-27T11:13:25.640Z,44.59
2023-04-27T11:14:59.181Z,44.79
2023-04-27T11:16:33.269Z,43.34
2023-04-27T11:18:06.709Z,43.93
2023-04-27T11:19:46.323Z,42.47
2023-04-27T11:21:20.824Z,44.54
2023-04-27T11:22:52.970Z,43.18
2023-04-27T11:24:25.109Z,41.50
2023-04-27T11:25:57.538Z,42.82
2023-04-27T11:27:42.657Z,41.28
2023-04-27T11:29:15.990Z,42.37
2023-04-27T11:30:49.819Z,42.83
2023-04-27T11:32:23.462Z,42.91
2023-04-27T11:33:56.332Z,42.93
2023-04-27T11:35:35.384Z,42.17
2023-04-27T11:37:18.389Z,43.94
2023-04-27T11:38:50.990Z,43.72
2023-04-27T11:40:24.568Z,41.15
2023-04-27T11:43:35.805Z,40.97
2023-04-27T11:45:11.231Z,40.46
2023-04-27T11:46:45.424Z,39.23
2023-04-27T11:48:17.636Z,39.25
2023-04-27T11:49:53.310Z,40.12
2023-04-27T11:51:25.634Z,39.93
2023-04-27T11:53:01.486Z,39.12
2023-04-27T11:54:33.660Z,40.61
2023-04-27T11:56:11.387Z,41.18
2023-04-27T11:57:43.754Z,39.85
2023-04-27T11:59:21.336Z,39.31
2023-04-27T12:00:53.410Z,37.38
2023-04-27T12:02:25.856Z,36.65
2023-04-27T12:04:00.740Z,37.16
2023-04-27T12:05:35.407Z,37.64
2023-04-27T12:07:07.626Z,38.98
2023-04-27T12:08:39.761Z,36.33
2023-04-27T12:10:12.335Z,37.16
2023-04-27T12:11:44.625Z,36.84
2023-04-27T12:13:16.967Z,36.58
2023-04-27T12:14:49.781Z,37.87
2023-04-27T12:16:25.116Z,37.61
2023-04-27T12:17:57.433Z,36.76
2023-04-27T12:19:30.922Z,36.98
2023-04-27T12:21:03.575Z,35.90
2023-04-27T12:22:35.977Z,35.85
2023-04-27T12:24:08.108Z,36.49
2023-04-27T12:25:41.606Z,36.03
2023-04-27T12:27:13.676Z,36.42
2023-04-27T12:28:46.040Z,37.83
2023-04-27T12:30:18.499Z,36.25
2023-04-27T12:31:51.833Z,38.16
2023-04-27T12:33:23.898Z,36.49
2023-04-27T12:34:56.049Z,35.54
2023-04-27T12:36:29.077Z,35.72
2023-04-27T12:38:01.651Z,35.62
2023-04-27T12:39:33.840Z,36.32
2023-04-27T12:41:06.104Z,36.95
2023-04-27T12:42:38.227Z,36.54
2023-04-27T12:44:10.437Z,36.72
2023-04-27T12:45:42.912Z,36.17
2023-04-27T12:47:27.812Z,37.63
2023-04-27T12:49:07.911Z,37.17
2023-04-27T12:50:40.069Z,37.52
2023-04-27T12:52:12.160Z,37.19
2023-04-27T12:53:44.307Z,39.04
2023-04-27T12:55:31.323Z,39.09
2023-04-27T12:57:07.375Z,37.67
2023-04-27T12:58:40.436Z,37.45
2023-04-27T13:00:13.975Z,37.92
2023-04-27T13:01:46.235Z,37.87
2023-04-27T13:03:18.547Z,37.56
2023-04-27T13:04:50.784Z,37.19
2023-04-27T13:06:23.316Z,37.59
2023-04-27T13:07:55.520Z,38.47
2023-04-27T13:09:30.855Z,38.61
2023-04-27T13:11:03.095Z,38.89
2023-04-27T13:12:37.858Z,38.40
2023-04-27T13:14:13.451Z,38.24
2023-04-27T13:15:46.854Z,39.19
2023-04-27T13:17:19.024Z,38.89
2023-04-27T13:18:52.720Z,39.71
2023-04-27T13:20:25.020Z,38.51
2023-04-27T13:21:57.208Z,39.11
2023-04-27T13:23:30.516Z,39.30
2023-04-27T13:25:02.439Z,38.02
2023-04-27T13:26:34.632Z,37.81
2023-04-27T13:28:06.848Z,38.53
2023-04-27T13:29:39.082Z,38.48
2023-04-27T13:31:11.497Z,37.24
2023-04-27T13:32:43.677Z,37.55
2023-04-27T13:34:16.237Z,38.78
2023-04-27T13:35:48.769Z,38.59
2023-04-27T13:37:20.897Z,39.28
2023-04-27T13:38:53.061Z,39.96
2023-04-27T13:40:25.181Z,38.74
2023-04-27T13:41:58.019Z,37.61
2023-04-27T13:43:31.629Z,39.48
2023-04-27T13:45:05.169Z,38.69
2023-04-27T13:46:37.922Z,38.77
2023-04-27T13:48:10.042Z,36.81
2023-04-27T13:49:42.176Z,37.21
2023-04-27T13:51:14.355Z,36.07
2023-04-27T13:52:46.741Z,37.39
2023-04-27T13:54:18.876Z,39.40
2023-04-27T13:55:51.175Z,36.62
2023-04-27T13:57:23.344Z,36.92
2023-04-27T13:58:55.517Z,36.84
2023-04-27T14:00:29.185Z,36.76
2023-04-27T14:02:01.470Z,35.70
2023-04-27T14:03:34.535Z,37.44
2023-04-27T14:05:07.489Z,36.42
2023-04-27T14:06:39.671Z,35.94
2023-04-27T14:08:12.041Z,35.87
2023-04-27T14:09:44.196Z,36.87
2023-04-27T14:11:16.678Z,37.35
2023-04-27T14:12:49.151Z,37.38
2023-04-27T14:14:21.343Z,36.75
2023-04-27T14:15:53.545Z,35.39
2023-04-27T14:17:26.082Z,36.33
2023-04-27T14:18:58.279Z,36.00
2023-04-27T14:20:30.882Z,36.54
2023-04-27T14:22:04.968Z,36.32
2023-04-27T14:23:37.113Z,35.18
2023-04-27T14:25:09.587Z,34.54
2023-04-27T14:26:44.489Z,34.66
2023-04-27T14:28:16.918Z,35.83
2023-04-27T14:29:49.090Z,37.16
2023-04-27T14:31:21.821Z,38.02
2023-04-27T14:32:54.343Z,36.20
2023-04-27T14:34:26.571Z,36.65
2023-04-27T14:35:58.791Z,36.00
2023-04-27T14:37:30.970Z,35.60
2023-04-27T14:39:04.865Z,35.06
2023-04-27T14:42:15.554Z,36.71
2023-04-27T14:43:49.230Z,36.46
2023-04-27T14:45:24.055Z,35.65
2023-04-27T14:46:56.573Z,36.35
2023-04-27T14:48:31.790Z,36.05
2023-04-27T14:50:04.273Z,36.24
2023-04-27T14:51:36.473Z,36.12
2023-04-27T14:53:08.619Z,36.77
2023-04-27T14:54:42.063Z,35.74
2023-04-27T14:56:14.168Z,36.11
2023-04-27T14:57:46.263Z,36.16
2023-04-27T14:59:18.487Z,36.85
2023-04-27T15:00:51.583Z,37.56
2023-04-27T15:02:23.804Z,36.41
2023-04-27T15:03:57.065Z,36.17
2023-04-27T15:05:29.063Z,35.42
2023-04-27T15:07:01.874Z,35.72
2023-04-27T15:08:34.553Z,35.08
2023-04-27T15:11:39.480Z,37.90
2023-04-27T15:13:12.394Z,37.24
2023-04-27T15:14:44.487Z,37.58
2023-04-27T15:16:16.900Z,37.79
2023-04-27T15:17:49.042Z,37.82
2023-04-27T15:19:21.230Z,37.66
2023-04-27T15:20:56.842Z,37.20
2023-04-27T15:22:29.011Z,37.59
2023-04-27T15:24:01.233Z,37.47
2023-04-27T15:25:33.560Z,36.46
2023-04-27T15:27:07.213Z,37.03
2023-04-27T15:28:41.320Z,36.02
2023-04-27T15:30:14.950Z,35.51
2023-04-27T15:31:47.764Z,35.66
2023-04-27T15:33:20.097Z,35.91
2023-04-27T15:34:52.309Z,36.73
2023-04-27T15:36:28.908Z,36.98
2023-04-27T15:38:01.217Z,37.34
2023-04-27T15:39:33.352Z,37.15
2023-04-27T15:41:05.639Z,37.47
2023-04-27T15:42:37.875Z,37.59
2023-04-27T15:44:10.056Z,37.93
2023-04-27T15:45:42.756Z,37.22
2023-04-27T15:47:15.772Z,37.31
2023-04-27T15:48:47.876Z,37.75
2023-04-27T15:50:20.342Z,38.33
2023-04-27T15:51:52.463Z,38.67
2023-04-27T15:53:24.612Z,38.87
2023-04-27T15:54:56.975Z,38.42
2023-04-27T15:56:30.755Z,38.42
2023-04-27T15:58:03.418Z,38.33
2023-04-27T18:41:31.900Z,41.75
2023-04-27T18:43:04.220Z,42.17
2023-04-27T18:44:36.902Z,41.80
2023-04-27T18:46:09.286Z,42.27
2023-04-27T18:47:41.545Z,42.17
2023-04-27T18:49:14.045Z,42.45
2023-04-27T18:50:46.415Z,42.47
2023-04-27T18:52:18.631Z,42.55
2023-04-27T18:53:50.842Z,42.38
2023-04-27T18:55:23.151Z,42.34
2023-04-27T18:56:55.383Z,42.51
2023-04-27T18:58:27.545Z,42.41
2023-04-27T19:00:00.648Z,42.44
2023-04-27T19:01:33.107Z,42.49
2023-04-27T19:03:06.346Z,42.62
2023-04-27T19:04:39.689Z,41.70
2023-04-27T19:06:13.775Z,41.68
2023-04-27T19:07:46.369Z,41.96
2023-04-27T19:09:19.712Z,41.65
2023-04-27T19:10:51.850Z,41.74
2023-04-27T19:12:24.865Z,41.35
2023-04-27T19:13:57.436Z,41.50
2023-04-27T19:15:29.704Z,41.67
2023-04-27T19:17:02.376Z,41.79
2023-04-27T19:18:35.068Z,42.05
2023-04-27T19:20:09.180Z,42.64
2023-04-27T19:21:42.413Z,42.12
2023-04-27T19:23:14.672Z,42.26
2023-04-27T19:24:46.913Z,42.17
2023-04-27T19:26:19.046Z,42.28
2023-04-27T19:27:51.790Z,42.31
2023-04-27T19:29:24.477Z,41.75
2023-04-27T19:30:56.734Z,41.82
2023-04-27T19:32:29.091Z,41.95
2023-04-27T19:34:04.132Z,41.93
2023-04-27T19:35:36.740Z,41.16
2023-04-27T19:37:08.916Z,41.65
2023-04-27T19:38:43.701Z,41.81
2023-04-27T19:40:16.213Z,41.65
2023-04-27T19:41:48.414Z,41.69
2023-04-27T19:43:20.742Z,41.85
2023-04-27T19:44:53.036Z,41.69
2023-04-27T19:46:25.374Z,41.72
2023-04-27T19:47:57.704Z,41.67
2023-04-27T19:49:33.587Z,41.44
2023-04-27T19:51:09.281Z,41.93
2023-04-27T19:52:41.561Z,41.73
2023-04-27T19:54:13.831Z,41.64
2023-04-27T19:55:46.138Z,41.47
2023-04-27T19:57:18.324Z,41.29
2023-04-27T19:58:50.643Z,41.44
2023-04-27T20:00:22.895Z,41.36
2023-04-27T20:01:55.175Z,41.61
2023-04-27T20:03:27.625Z,41.45
2023-04-27T20:05:00.270Z,41.51
2023-04-27T20:06:33.734Z,41.46
2023-04-27T20:08:06.596Z,41.46
2023-04-27T20:09:38.800Z,41.43
2023-04-27T20:11:13.750Z,41.46
2023-04-27T20:12:56.073Z,41.44
2023-04-27T20:14:31.621Z,41.46
2023-04-27T20:16:05.487Z,41.61
2023-04-27T20:17:37.811Z,41.69
2023-04-27T20:19:11.261Z,41.74
2023-04-27T20:20:43.306Z,42.01
2023-04-27T20:22:15.515Z,42.06
2023-04-27T20:23:50.959Z,41.54
2023-04-27T20:25:23.406Z,41.60
2023-04-27T20:26:55.610Z,41.73
2023-04-27T20:28:30.258Z,41.41
2023-04-27T20:30:02.892Z,41.49
2023-04-27T20:31:35.175Z,41.89
2023-04-27T20:33:07.468Z,41.93
2023-04-27T20:34:39.802Z,41.75
2023-04-27T20:36:17.251Z,41.51
2023-04-27T20:37:50.619Z,41.75
2023-04-27T20:39:23.084Z,41.74
2023-04-27T20:40:55.336Z,41.56
2023-04-27T20:42:27.668Z,41.57
2023-04-27T20:44:00.827Z,41.77
2023-04-27T20:45:33.461Z,42.07
2023-04-27T20:47:06.358Z,41.96
2023-04-27T20:48:38.793Z,42.18
2023-04-27T20:50:11.232Z,42.10
2023-04-27T20:51:43.406Z,42.10
2023-04-27T20:53:15.785Z,41.26
2023-04-27T20:54:47.980Z,41.29
2023-04-27T20:56:20.632Z,41.54
2023-04-27T20:57:52.976Z,41.64
2023-04-27T20:59:25.191Z,41.88
2023-04-27T21:00:57.468Z,41.87
2023-04-27T21:02:29.728Z,42.07
2023-04-27T21:04:01.998Z,41.21
2023-04-27T21:05:34.224Z,41.49
2023-04-27T21:07:06.454Z,41.75
2023-04-27T21:08:38.959Z,41.62
2023-04-27T21:10:12.388Z,42.40
2023-04-27T21:11:44.385Z,42.07
2023-04-27T21:13:16.656Z,42.02
2023-04-27T21:14:48.819Z,42.04
2023-04-27T21:16:22.060Z,42.09
2023-04-27T21:19:26.319Z,42.15
2023-04-27T21:20:58.875Z,42.22
2023-04-27T21:22:31.145Z,42.22
2023-04-27T21:24:19.056Z,42.51
2023-04-27T21:25:51.286Z,42.37
2023-04-27T21:27:23.564Z,41.87
2023-04-27T21:28:56.268Z,42.08
2023-04-27T21:30:30.872Z,42.70
2023-04-27T21:32:03.251Z,42.29
2023-04-27T21:33:35.399Z,41.95
2023-04-27T21:35:08.447Z,41.84
2023-04-27T21:36:40.589Z,42.25
2023-04-27T21:38:12.843Z,41.97
2023-04-27T21:39:44.894Z,42.20
2023-04-27T21:41:17.816Z,42.40
2023-04-27T21:42:59.151Z,42.48
2023-04-27T21:44:31.515Z,42.06
2023-04-27T21:46:03.664Z,42.24
2023-04-27T21:47:36.084Z,42.35
2023-04-27T21:49:08.211Z,42.06
2023-04-27T21:50:40.299Z,42.27
2023-04-27T21:52:12.356Z,42.36
2023-04-27T21:53:44.587Z,42.45
2023-04-27T21:55:16.743Z,42.38
2023-04-27T21:56:48.934Z,42.71
2023-04-27T21:58:21.472Z,41.88
2023-04-27T21:59:53.579Z,42.15
2023-04-27T22:01:27.546Z,42.33
2023-04-27T22:03:00.083Z,41.95
2023-04-27T22:04:34.954Z,41.93
2023-04-27T22:06:07.979Z,42.29
2023-04-27T22:07:40.176Z,42.08
2023-04-27T22:09:12.660Z,42.57
2023-04-27T22:10:45.383Z,42.27
2023-04-27T22:12:17.514Z,42.42
2023-04-27T22:13:49.627Z,42.24
2023-04-27T22:15:21.962Z,42.50
2023-04-27T22:16:54.096Z,43.39
2023-04-27T22:18:26.404Z,42.55
2023-04-27T22:19:58.915Z,42.31
2023-04-27T22:21:31.629Z,42.40
2023-04-27T22:23:03.904Z,42.41
2023-04-27T22:24:36.027Z,42.59
2023-04-27T22:26:09.017Z,42.30
2023-04-27T22:27:45.105Z,42.41
2023-04-27T22:29:17.689Z,42.23
2023-04-27T22:30:49.786Z,42.30
2023-04-27T22:32:22.035Z,42.50
2023-04-27T22:33:54.248Z,42.22
2023-04-27T22:35:27.932Z,42.21
2023-04-27T22:37:00.514Z,42.29
2023-04-27T22:38:32.819Z,42.85
2023-04-27T22:40:06.333Z,42.65
2023-04-27T22:41:38.388Z,42.46
2023-04-27T22:43:10.529Z,42.35
2023-04-27T22:44:42.673Z,42.33
2023-04-27T22:46:14.902Z,42.58
2023-04-27T22:47:47.145Z,42.08
2023-04-27T22:49:19.421Z,41.79
2023-04-27T22:50:51.550Z,42.67
2023-04-27T22:52:25.110Z,42.50
2023-04-27T22:53:57.188Z,42.31
2023-04-27T22:55:29.381Z,42.25